Calexico, California
Current Conditions -  °F | °C
As of 11:53 PM on Thursday 23 Oct 2014 (Local Time) from KIPL Reporting Station
Clear Clear  
Wind Chill: 71°   Ceiling: Unl
Heat Index: 71°   Visibility: 10mi
Dew Point: 50°   Wind: 6mph
Humidity: 47%   Direction: 270°W
Pressure: 29.9"   Gusts: NA
Location:  32.68°N, 115.49°W
Report Text: KIPL 240653Z AUTO 27005KT 10SM CLR 22/10 A2990 RMK AO2 SLP127 T02170100
Loading
Personal Weather Stations






























Interactive Weather Map
Tropical Storm Tracking
New forecast layout! Learn more

10-Day Weather Forecast

Advertisements
Track Severe Weather on mobile